Portada
METAR-TAF:

METAR-TAF

Aeropuertos :

Dhahran, Arabia Saudita

latitud: 26-16N, longitud: 050-09E, altitud: 26 m

Observación

El informe se hizo hace 55 minutos, a las 23:00 UTC
Viento 2 kt con dirección variable
Temperatura 19°C
Humedad 64%
Presión 1015 hPa
Visibilidad 10 km o más
sin nubes por debajo de 1500 m y sin presencia de cumulonimbus.

METAR: OEDR 092300Z VRB02KT CAVOK 19/12 Q1015 NOSIG

Hora: 02:55 (23:55 UTC)

Pronóstico

El informe se hizo hace 3 horas y 13 minutos, a las 20:42 UTC
Pronóstico válido del 10 a las 00 UTC al 11 a las 06 UTC
Viento 7 kt del noreste
Visibilidad: 8000 m
Probabilidad 30% :
Temporalmente
del 10 a las 00 UTC al 10 a las 05 UTC
Visibilidad: 5000 m
calima

TAF: OEDR 092042Z 1000/1106 05007KT 8000 NSC PROB30 TEMPO 1000/1005 5000 HZ

Observaciones y pronósticos meteorológicos de más de 4000 aeropuertos (mensajes METAR y TAF).

Los puntos amarillos y rojos representan las estaciones disponibles.

Ponga el ratón en el punto deseado para ver el nombre de la estación.

Haga clic para ver las observaciones y los pronósticos meteorológicos.

Para cambiar el mapa : haga clic en los botones verdes con una cruz de color negro para hacer un zoom, en el botón verde con un guión para alejar o en las flechas verdes para mapas adyacentes.


METAR-TAF: